createdAt,value
2023-05-24T00:01:33.729Z,4.95
2023-05-24T00:04:35.997Z,4.93
2023-05-24T00:07:40.289Z,4.88
2023-05-24T00:10:44.098Z,5.22
2023-05-24T00:13:46.297Z,5.05
2023-05-24T00:16:50.764Z,5.07
2023-05-24T00:19:52.762Z,4.97
2023-05-24T00:22:54.570Z,4.63
2023-05-24T00:25:57.951Z,4.60
2023-05-24T00:29:01.074Z,5.47
2023-05-24T00:32:03.072Z,4.78
2023-05-24T00:35:06.255Z,4.90
2023-05-24T00:38:08.773Z,4.97
2023-05-24T00:41:14.274Z,5.40
2023-05-24T00:44:17.965Z,5.80
2023-05-24T00:47:20.522Z,5.05
2023-05-24T00:50:23.036Z,5.53
2023-05-24T00:53:24.918Z,5.00
2023-05-24T00:56:31.893Z,5.75
2023-05-24T00:59:34.395Z,5.28
2023-05-24T01:02:37.364Z,5.78
2023-05-24T01:05:46.944Z,5.38
2023-05-24T01:09:12.384Z,5.30
2023-05-24T01:12:27.436Z,5.85
2023-05-24T01:15:41.719Z,5.43
2023-05-24T01:18:50.251Z,5.13
2023-05-24T01:22:02.273Z,5.67
2023-05-24T01:25:10.108Z,5.97
2023-05-24T01:28:14.323Z,5.85
2023-05-24T01:31:18.102Z,5.53
2023-05-24T01:34:21.382Z,5.85
2023-05-24T01:37:24.265Z,5.80
2023-05-24T01:40:26.166Z,6.93
2023-05-24T01:43:37.238Z,6.07
2023-05-24T01:46:39.414Z,6.50
2023-05-24T01:49:49.933Z,6.05
2023-05-24T01:52:53.728Z,5.93
2023-05-24T01:56:00.392Z,7.00
2023-05-24T01:59:07.375Z,6.72
2023-05-24T02:02:11.570Z,6.75
2023-05-24T02:05:13.682Z,7.00
2023-05-24T02:08:16.084Z,6.72
2023-05-24T02:11:18.031Z,6.95
2023-05-24T02:14:23.599Z,6.72
2023-05-24T02:17:25.393Z,6.50
2023-05-24T02:20:27.468Z,6.35
2023-05-24T02:23:30.280Z,6.82
2023-05-24T02:26:34.631Z,6.45
2023-05-24T02:29:37.780Z,6.88
2023-05-24T02:32:39.658Z,7.00
2023-05-24T02:35:42.455Z,6.93
2023-05-24T02:38:44.446Z,6.88
2023-05-24T02:41:46.214Z,7.13
2023-05-24T02:44:49.962Z,7.57
2023-05-24T02:47:53.494Z,7.57
2023-05-24T02:50:55.744Z,7.13
2023-05-24T02:54:06.420Z,7.35
2023-05-24T02:57:08.558Z,7.63
2023-05-24T03:00:14.412Z,7.43
2023-05-24T03:03:16.830Z,7.70
2023-05-24T03:06:19.185Z,7.40
2023-05-24T03:09:21.753Z,7.38
2023-05-24T03:12:23.786Z,6.95
2023-05-24T03:15:27.499Z,7.40
2023-05-24T03:18:29.278Z,7.70
2023-05-24T03:21:31.382Z,7.93
2023-05-24T03:24:33.168Z,7.35
2023-05-24T03:27:35.706Z,7.97
2023-05-24T03:30:41.805Z,7.78
2023-05-24T03:33:44.924Z,8.02
2023-05-24T03:36:49.052Z,8.23
2023-05-24T03:39:52.283Z,7.38
2023-05-24T03:42:54.031Z,7.63
2023-05-24T03:45:58.126Z,6.60
2023-05-24T03:48:59.843Z,7.15
2023-05-24T03:52:01.886Z,6.82
2023-05-24T03:55:04.071Z,6.90
2023-05-24T03:58:07.275Z,6.78
2023-05-24T04:01:12.668Z,7.47
2023-05-24T04:04:20.768Z,8.23
2023-05-24T04:07:25.230Z,7.78
2023-05-24T04:10:27.098Z,7.55
2023-05-24T04:13:31.807Z,7.22
2023-05-24T04:16:37.678Z,7.70
2023-05-24T04:19:39.597Z,7.22
2023-05-24T04:22:41.366Z,7.30
2023-05-24T04:25:44.116Z,7.55
2023-05-24T04:28:46.089Z,7.65
2023-05-24T04:31:51.744Z,7.85
2023-05-24T04:34:54.817Z,7.30
2023-05-24T04:37:59.542Z,7.60
2023-05-24T04:41:03.112Z,7.55
2023-05-24T04:44:05.745Z,7.88
2023-05-24T04:47:10.562Z,7.50
2023-05-24T04:50:14.225Z,7.18
2023-05-24T04:53:16.627Z,7.53
2023-05-24T04:56:20.940Z,7.65
2023-05-24T04:59:23.268Z,7.18
2023-05-24T05:02:27.150Z,7.10
2023-05-24T05:05:31.267Z,7.15
2023-05-24T05:08:33.251Z,7.22
2023-05-24T05:11:37.443Z,7.22
2023-05-24T05:14:39.447Z,6.97
2023-05-24T05:17:43.486Z,7.65
2023-05-24T05:20:46.169Z,6.97
2023-05-24T05:23:48.432Z,7.53
2023-05-24T05:26:50.195Z,7.18
2023-05-24T05:29:52.536Z,8.10
2023-05-24T05:32:57.550Z,7.63
2023-05-24T05:36:03.118Z,8.05
2023-05-24T05:39:05.672Z,7.10
2023-05-24T05:42:08.013Z,7.65
2023-05-24T05:45:10.952Z,6.93
2023-05-24T05:48:14.813Z,6.90
2023-05-24T05:51:16.897Z,6.22
2023-05-24T05:54:20.997Z,6.35
2023-05-24T05:57:23.082Z,6.60
2023-05-24T06:00:25.464Z,6.63
2023-05-24T06:03:29.091Z,6.03
2023-05-24T06:06:31.369Z,6.50
2023-05-24T06:09:35.922Z,6.13
2023-05-24T06:12:38.385Z,6.90
2023-05-24T06:15:40.487Z,5.38
2023-05-24T06:18:57.166Z,5.60
2023-05-24T06:22:10.038Z,5.97
2023-05-24T06:25:12.117Z,5.63
2023-05-24T06:28:15.071Z,5.35
2023-05-24T06:31:17.604Z,5.30
2023-05-24T06:34:21.777Z,5.22
2023-05-24T06:37:25.835Z,5.10
2023-05-24T06:40:28.375Z,5.53
2023-05-24T06:43:35.487Z,5.10
2023-05-24T06:46:37.340Z,5.75
2023-05-24T06:49:41.534Z,5.00
2023-05-24T06:52:43.467Z,5.28
2023-05-24T06:55:45.219Z,5.60
2023-05-24T06:58:47.737Z,4.88
2023-05-24T07:01:49.990Z,5.38
2023-05-24T07:04:56.151Z,5.00
2023-05-24T07:07:59.520Z,4.90
2023-05-24T07:11:04.123Z,5.18
2023-05-24T07:14:07.460Z,5.03
2023-05-24T07:17:09.328Z,5.70
2023-05-24T07:20:14.273Z,5.35
2023-05-24T07:23:19.340Z,5.35
2023-05-24T07:26:21.321Z,4.90
2023-05-24T07:29:23.568Z,5.60
2023-05-24T07:32:28.298Z,5.47
2023-05-24T07:35:31.520Z,5.30
2023-05-24T07:38:35.689Z,5.55
2023-05-24T07:41:37.774Z,5.55
2023-05-24T07:44:42.009Z,5.20
2023-05-24T07:47:46.140Z,5.95
2023-05-24T07:50:51.279Z,5.60
2023-05-24T07:53:54.344Z,4.85
2023-05-24T07:56:58.600Z,4.32
2023-05-24T08:00:00.636Z,4.32
2023-05-24T08:03:09.859Z,3.65
2023-05-24T08:06:15.890Z,3.83
2023-05-24T08:09:20.598Z,3.22
2023-05-24T08:12:23.400Z,3.95
2023-05-24T08:15:25.490Z,3.80
2023-05-24T08:18:29.580Z,3.22
2023-05-24T08:21:35.259Z,3.55
2023-05-24T08:24:39.421Z,4.22
2023-05-24T08:27:41.174Z,3.45
2023-05-24T08:30:46.519Z,3.85
2023-05-24T08:33:48.593Z,3.70
2023-05-24T08:36:52.226Z,4.45
2023-05-24T08:39:56.500Z,4.10
2023-05-24T08:43:02.788Z,3.50
2023-05-24T08:46:05.789Z,3.30
2023-05-24T08:49:07.927Z,3.72
2023-05-24T08:52:13.065Z,3.22
2023-05-24T08:55:15.021Z,3.40
2023-05-24T08:58:17.880Z,4.03
2023-05-24T09:01:20.239Z,3.20
2023-05-24T09:04:24.043Z,3.80
2023-05-24T09:07:30.450Z,3.40
2023-05-24T09:10:44.761Z,3.15
2023-05-24T09:13:56.839Z,3.28
2023-05-24T09:16:59.799Z,3.20
2023-05-24T09:20:01.868Z,3.50
2023-05-24T09:23:06.758Z,3.42
2023-05-24T09:26:10.187Z,3.90
2023-05-24T09:29:12.430Z,3.30
2023-05-24T09:32:14.678Z,3.40
2023-05-24T09:35:18.978Z,3.60
2023-05-24T09:38:22.391Z,3.30
2023-05-24T09:41:24.362Z,3.63
2023-05-24T09:44:28.828Z,3.47
2023-05-24T09:47:31.257Z,3.80
2023-05-24T09:50:33.326Z,3.83
2023-05-24T09:53:37.310Z,3.50
2023-05-24T09:56:43.090Z,3.55
2023-05-24T09:59:46.523Z,3.80
2023-05-24T10:03:01.432Z,3.78
2023-05-24T10:06:06.659Z,3.88
2023-05-24T10:09:11.753Z,3.78
2023-05-24T10:12:15.885Z,3.53
2023-05-24T10:15:17.825Z,2.90
2023-05-24T10:18:19.816Z,3.85
2023-05-24T10:21:23.819Z,3.90
2023-05-24T10:24:33.365Z,3.90
2023-05-24T10:27:38.939Z,4.10
2023-05-24T10:30:48.366Z,3.30
2023-05-24T10:33:51.159Z,2.92
2023-05-24T10:36:53.457Z,3.00
2023-05-24T10:39:58.959Z,3.38
2023-05-24T10:43:04.776Z,3.80
2023-05-24T10:46:09.769Z,3.80
2023-05-24T10:49:14.065Z,3.70
2023-05-24T10:52:17.293Z,3.45
2023-05-24T10:55:23.071Z,3.30
2023-05-24T10:58:43.648Z,3.70
2023-05-24T11:01:55.156Z,3.80
2023-05-24T11:05:05.434Z,3.28
2023-05-24T11:08:09.804Z,3.60
2023-05-24T11:14:23.389Z,3.13
2023-05-24T11:17:25.371Z,3.20
2023-05-24T11:20:29.101Z,2.92
2023-05-24T11:23:34.476Z,3.35
2023-05-24T11:26:41.765Z,2.97
2023-05-24T11:29:46.043Z,3.45
2023-05-24T11:32:53.919Z,3.10
2023-05-24T11:35:55.979Z,3.50
2023-05-24T11:38:58.044Z,3.55
2023-05-24T11:42:06.704Z,3.50
2023-05-24T11:45:10.808Z,2.95
2023-05-24T11:48:13.067Z,2.85
2023-05-24T11:51:14.821Z,3.30
2023-05-24T11:54:21.596Z,3.33
2023-05-24T11:57:38.047Z,3.00
2023-05-24T12:00:42.098Z,3.30
2023-05-24T12:03:44.678Z,3.20
2023-05-24T12:06:46.896Z,3.13
2023-05-24T12:09:49.413Z,3.22
2023-05-24T12:12:54.909Z,3.60
2023-05-24T12:15:57.239Z,3.38
2023-05-24T12:19:05.212Z,3.95
2023-05-24T12:22:11.979Z,3.67
2023-05-24T12:25:14.501Z,3.65
2023-05-24T12:28:20.154Z,4.70
2023-05-24T12:31:22.028Z,3.97
2023-05-24T12:34:24.568Z,3.53
2023-05-24T12:37:30.271Z,3.92
2023-05-24T12:40:35.473Z,3.65
2023-05-24T12:43:39.466Z,3.92
2023-05-24T12:46:41.402Z,4.03
2023-05-24T12:49:45.740Z,3.97
2023-05-24T12:52:47.712Z,4.03
2023-05-24T12:55:50.320Z,4.63
2023-05-24T12:58:53.945Z,3.90
2023-05-24T13:01:55.720Z,4.38
2023-05-24T13:04:58.001Z,4.20
2023-05-24T13:07:59.773Z,3.90
2023-05-24T13:11:01.845Z,4.10
2023-05-24T13:14:06.686Z,4.05
2023-05-24T13:17:09.210Z,4.47
2023-05-24T13:20:11.614Z,4.25
2023-05-24T13:23:13.616Z,3.67
2023-05-24T13:26:18.325Z,3.80
2023-05-24T13:29:36.848Z,3.28
2023-05-24T13:32:45.593Z,3.65
2023-05-24T13:35:49.231Z,3.65
2023-05-24T13:38:54.324Z,3.97
2023-05-24T13:42:06.258Z,3.97
2023-05-24T13:45:12.791Z,3.60
2023-05-24T13:48:17.148Z,3.95
2023-05-24T13:51:18.970Z,3.90
2023-05-24T13:54:21.104Z,4.30
2023-05-24T13:57:26.542Z,3.90
2023-05-24T14:00:34.203Z,3.95
2023-05-24T14:03:36.451Z,3.92
2023-05-24T14:06:38.741Z,3.55
2023-05-24T14:09:40.728Z,3.95
2023-05-24T14:12:42.961Z,5.03
2023-05-24T14:15:48.829Z,6.75
2023-05-24T14:18:51.281Z,8.23
2023-05-24T14:21:53.784Z,8.48
2023-05-24T14:24:55.656Z,8.40
2023-05-24T14:27:57.487Z,9.38
2023-05-24T14:31:04.566Z,8.65
2023-05-24T14:34:06.821Z,8.73
2023-05-24T14:37:09.022Z,8.07
2023-05-24T14:40:11.974Z,8.32
2023-05-24T14:43:14.208Z,7.68
2023-05-24T14:46:22.196Z,9.73
2023-05-24T14:49:24.013Z,8.88
2023-05-24T14:52:25.782Z,9.05
2023-05-24T14:55:27.525Z,9.32
2023-05-24T14:58:29.664Z,8.18
2023-05-24T15:01:32.855Z,9.07
2023-05-24T15:04:36.296Z,7.60
2023-05-24T15:07:38.274Z,5.90
2023-05-24T15:10:40.498Z,6.80
2023-05-24T15:13:44.964Z,6.95
2023-05-24T15:16:50.851Z,6.13
2023-05-24T15:19:53.169Z,6.50
2023-05-24T15:22:56.301Z,6.43
2023-05-24T15:25:58.063Z,7.18
2023-05-24T15:29:00.377Z,7.05
2023-05-24T15:32:07.876Z,7.93
2023-05-24T15:35:10.108Z,7.18
2023-05-24T15:38:11.894Z,7.18
2023-05-24T15:41:15.239Z,7.45
2023-05-24T15:44:17.608Z,8.10
2023-05-24T15:47:23.324Z,7.97
2023-05-24T15:50:42.606Z,8.43
2023-05-24T15:53:49.290Z,7.88
2023-05-24T15:56:51.260Z,8.45
2023-05-24T15:59:53.198Z,9.07
2023-05-24T16:02:57.732Z,11.15
2023-05-24T16:05:59.787Z,8.15
2023-05-24T16:09:01.533Z,8.02
2023-05-24T16:12:03.772Z,7.90
2023-05-24T16:15:07.839Z,9.35
2023-05-24T16:18:11.368Z,10.80
2023-05-24T16:21:13.225Z,12.50
2023-05-24T16:24:15.216Z,10.43
2023-05-24T16:27:18.263Z,8.73
2023-05-24T16:30:20.260Z,10.52
2023-05-24T16:33:25.727Z,11.15
2023-05-24T16:36:29.097Z,10.95
2023-05-24T16:39:31.349Z,11.02
2023-05-24T16:42:33.115Z,10.35
2023-05-24T16:45:35.178Z,10.20
2023-05-24T16:48:39.256Z,10.32
2023-05-24T16:51:43.396Z,9.55
2023-05-24T16:54:45.677Z,10.82
2023-05-24T16:57:47.658Z,13.32
2023-05-24T17:00:49.747Z,8.68
2023-05-24T17:03:55.570Z,9.50
2023-05-24T17:07:00.614Z,11.32
2023-05-24T17:10:05.342Z,12.82
2023-05-24T17:13:07.498Z,11.07
2023-05-24T17:16:09.396Z,10.50
2023-05-24T17:19:15.055Z,12.07
2023-05-24T17:22:17.028Z,9.07
2023-05-24T17:25:19.339Z,9.50
2023-05-24T17:28:21.738Z,12.77
2023-05-24T17:31:24.337Z,10.02
2023-05-24T17:34:28.449Z,10.32
2023-05-24T17:37:32.206Z,9.88
2023-05-24T17:40:34.629Z,10.10
2023-05-24T17:43:40.596Z,9.32
2023-05-24T17:46:43.102Z,10.13
2023-05-24T17:49:47.592Z,11.45
2023-05-24T17:52:50.007Z,10.20
2023-05-24T17:55:53.667Z,10.23
2023-05-24T17:58:56.271Z,12.77
2023-05-24T18:01:59.357Z,10.60
2023-05-24T18:05:03.616Z,10.35
2023-05-24T18:08:11.607Z,10.88
2023-05-24T18:11:14.399Z,10.30
2023-05-24T18:14:17.297Z,9.65
2023-05-24T18:17:20.197Z,10.32
2023-05-24T18:20:26.790Z,9.10
2023-05-24T18:23:29.631Z,8.02
2023-05-24T18:26:33.280Z,8.40
2023-05-24T18:29:37.781Z,7.38
2023-05-24T18:32:51.907Z,7.88
2023-05-24T18:36:01.438Z,8.50
2023-05-24T18:39:04.226Z,8.15
2023-05-24T18:42:06.781Z,8.63
2023-05-24T18:45:09.936Z,8.23
2023-05-24T18:48:15.053Z,8.45
2023-05-24T18:51:19.765Z,7.63
2023-05-24T18:54:23.542Z,8.05
2023-05-24T18:57:26.344Z,7.38
2023-05-24T19:00:31.444Z,7.40
2023-05-24T19:03:34.846Z,8.07
2023-05-24T19:06:42.153Z,8.00
2023-05-24T19:09:44.938Z,9.38
2023-05-24T19:12:47.440Z,9.45
2023-05-24T19:15:51.186Z,9.82
2023-05-24T19:18:53.649Z,8.65
2023-05-24T19:21:57.720Z,8.60
2023-05-24T19:25:00.130Z,8.52
2023-05-24T19:28:02.506Z,7.93
2023-05-24T19:31:05.158Z,7.97
2023-05-24T19:34:08.464Z,8.07
2023-05-24T19:37:13.081Z,8.50
2023-05-24T19:40:15.053Z,7.97
2023-05-24T19:43:19.198Z,8.10
2023-05-24T19:46:21.164Z,7.97
2023-05-24T19:49:23.349Z,7.55
2023-05-24T19:52:27.235Z,8.05
2023-05-24T19:55:29.377Z,7.40
2023-05-24T19:58:32.227Z,7.57
2023-05-24T20:01:34.244Z,8.50
2023-05-24T20:04:36.209Z,8.23
2023-05-24T20:07:39.717Z,8.18
2023-05-24T20:10:43.150Z,7.68
2023-05-24T20:13:45.074Z,7.97
2023-05-24T20:16:50.040Z,8.23
2023-05-24T20:19:53.039Z,7.18
2023-05-24T20:22:56.686Z,7.93
2023-05-24T20:25:58.516Z,7.68
2023-05-24T20:29:00.480Z,8.13
2023-05-24T20:32:02.560Z,7.55
2023-05-24T20:35:07.495Z,7.70
2023-05-24T20:38:12.015Z,7.40
2023-05-24T20:41:14.237Z,7.22
2023-05-24T20:44:16.285Z,6.57
2023-05-24T20:47:18.784Z,7.50
2023-05-24T20:50:20.860Z,6.80
2023-05-24T20:53:27.196Z,7.18
2023-05-24T20:56:29.207Z,7.68
2023-05-24T20:59:31.243Z,7.40
2023-05-24T21:02:33.096Z,7.13
2023-05-24T21:05:35.291Z,6.57
2023-05-24T21:08:38.926Z,6.90
2023-05-24T21:11:40.702Z,7.10
2023-05-24T21:14:43.619Z,6.97
2023-05-24T21:17:47.739Z,7.68
2023-05-24T21:20:52.101Z,7.57
2023-05-24T21:23:57.566Z,6.75
2023-05-24T21:26:59.548Z,7.65
2023-05-24T21:30:01.365Z,7.40
2023-05-24T21:33:03.475Z,8.15
2023-05-24T21:36:05.673Z,8.30
2023-05-24T21:39:09.165Z,7.40
2023-05-24T21:42:11.230Z,8.05
2023-05-24T21:45:16.286Z,8.27
2023-05-24T21:48:20.589Z,8.57
2023-05-24T21:51:22.850Z,7.97
2023-05-24T21:54:26.417Z,8.10
2023-05-24T21:57:30.535Z,8.95
2023-05-24T22:00:32.514Z,8.38
2023-05-24T22:03:34.386Z,9.20
2023-05-24T22:06:36.515Z,9.00
2023-05-24T22:09:39.851Z,9.30
2023-05-24T22:12:43.824Z,11.35
2023-05-24T22:15:48.355Z,11.80
2023-05-24T22:18:51.788Z,12.40
2023-05-24T22:21:53.620Z,13.00
2023-05-24T22:24:56.787Z,12.82
2023-05-24T22:27:58.547Z,13.30
2023-05-24T22:31:02.502Z,14.15
2023-05-24T22:34:06.774Z,13.80
2023-05-24T22:37:08.738Z,14.05
2023-05-24T22:40:13.416Z,13.80
2023-05-24T22:43:15.134Z,14.18
2023-05-24T22:46:17.591Z,13.70
2023-05-24T22:49:19.790Z,14.20
2023-05-24T22:52:21.738Z,13.77
2023-05-24T22:55:25.152Z,13.77
2023-05-24T22:58:29.223Z,14.30
2023-05-24T23:01:31.562Z,14.32
2023-05-24T23:04:33.376Z,14.70
2023-05-24T23:07:35.121Z,13.45
2023-05-24T23:10:38.456Z,13.90
2023-05-24T23:13:40.269Z,13.63
2023-05-24T23:16:42.614Z,13.55
2023-05-24T23:19:44.502Z,14.10
2023-05-24T23:22:48.721Z,13.65
2023-05-24T23:25:57.073Z,13.45
2023-05-24T23:28:59.329Z,9.45
2023-05-24T23:32:03.627Z,13.77
2023-05-24T23:35:06.636Z,14.00
2023-05-24T23:38:08.422Z,14.15
2023-05-24T23:41:11.796Z,12.70
2023-05-24T23:44:16.429Z,13.02
2023-05-24T23:47:18.154Z,12.48
2023-05-24T23:50:20.337Z,12.30
2023-05-24T23:53:22.121Z,12.68
2023-05-24T23:56:25.482Z,12.35
2023-05-24T23:59:27.256Z,11.88
